Terminal Aerodrome Forecast
Issued by NWS

Home | Current Version | Previous Version | Graphics & Text | Print | Product List | Glossary On
Versions: 1 2 3 4 5 6 7 8 9 10 11 12 13 14 15 16 17 18 19
805
FTUS43 KICT 301132
TAFCNU
TAF
KCNU 301132Z 3012/3112 33003KT P6SM SCT100
      TEMPO 3012/3013 5SM BR
     FM301700 15005KT P6SM VCTS BKN050CB
     FM310000 VRB05KT P6SM SCT050 BKN250
     FM310900 07007KT P6SM VCSH SCT040 BKN100=

USA.gov is the U.S. government's official web portal to all federal, state and local government web resources and services.